Salonica, Greece
Current Conditions -  °F | °C
As of 8:50 AM on Friday 28 Nov 2014 (Local Time) from LGTS Reporting Station
Drizzle Drizzle  
Wind Chill:   Ceiling: 2000
Heat Index:   Visibility: 1.2mi
Dew Point:   Wind: 0mph
Humidity: 93%   Direction: NA
Pressure: 30.21"   Gusts: NA
Location:  40.52°N, 22.97°E
Report Text: LGTS 280550Z 00000KT 2000 -DZ BR SCT004 BKN020 OVC060 09/08 Q1023 NOSIG
Loading
Personal Weather Stations






























Interactive Weather Map New forecast layout! Learn more

10-Day Weather Forecast

Advertisements
Track Severe Weather on mobile